Time,TemperatureF,DewpointF,PressureIn,WindDirection,WindDirectionDegrees,WindSpeedMPH,WindSpeedGustMPH,Humidity,HourlyPrecipIn,Conditions,Clouds,dailyrainin,SoftwareType,DateUTC
2013-04-28 00:03:00,38.0,-99.9,30.30,ENE,63,0.0,0.0,87,0.00,,,0.00,,2013-04-28 04:03:00,
2013-04-28 00:13:00,38.0,34.0,30.30,ENE,63,0.0,0.0,87,0.00,,,0.00,,2013-04-28 04:13:00,
2013-04-28 00:23:00,37.0,34.0,30.30,ENE,63,0.0,0.0,88,0.00,,,0.00,,2013-04-28 04:23:00,
2013-04-28 00:32:00,37.0,34.0,30.31,ENE,63,0.0,0.0,88,0.00,,,0.00,,2013-04-28 04:32:00,
2013-04-28 00:43:00,37.0,34.0,30.31,ENE,63,0.0,0.0,88,0.00,,,0.00,,2013-04-28 04:43:00,
2013-04-28 00:53:00,37.0,34.0,30.31,ENE,63,0.0,0.0,88,0.00,,,0.00,,2013-04-28 04:53:00,
2013-04-28 01:02:00,37.0,34.0,30.31,ENE,63,0.0,0.0,88,0.00,,,0.00,,2013-04-28 05:02:00,
2013-04-28 01:22:00,35.0,32.0,30.31,ENE,63,0.0,0.0,90,0.00,,,0.00,,2013-04-28 05:22:00,
2013-04-28 01:32:00,36.0,34.0,30.30,NE,36,0.0,0.0,91,0.00,,,0.00,,2013-04-28 05:32:00,
2013-04-28 01:42:00,36.0,34.0,30.30,NE,36,0.0,0.0,91,0.00,,,0.00,,2013-04-28 05:42:00,
2013-04-28 01:52:00,35.0,32.0,30.30,NE,36,0.0,0.0,90,0.00,,,0.00,,2013-04-28 05:52:00,
2013-04-28 02:01:00,34.0,32.0,30.29,NE,36,327.0,327.0,91,-99.99,,,-99.99,,2013-04-28 06:01:00,
2013-04-28 02:12:00,34.0,32.0,30.29,NE,36,327.0,327.0,91,-99.99,,,-99.99,,2013-04-28 06:12:00,
2013-04-28 02:21:00,34.0,32.0,30.29,NE,36,0.0,0.0,91,0.00,,,0.00,,2013-04-28 06:21:00,
2013-04-28 02:32:00,34.0,32.0,30.29,NE,36,0.0,0.0,91,0.00,,,0.00,,2013-04-28 06:32:00,
2013-04-28 02:42:00,34.0,32.0,30.29,NE,36,0.0,0.0,91,0.00,,,0.00,,2013-04-28 06:42:00,
2013-04-28 02:52:00,34.0,32.0,30.29,NE,36,0.0,0.0,92,0.00,,,0.00,,2013-04-28 06:52:00,
2013-04-28 03:02:00,33.0,31.0,30.29,NE,36,0.0,0.0,92,0.00,,,0.00,,2013-04-28 07:02:00,
2013-04-28 03:11:00,33.0,31.0,30.29,NE,36,0.0,0.0,92,0.00,,,0.00,,2013-04-28 07:11:00,
2013-04-28 03:21:00,33.0,31.0,30.29,NE,36,0.0,0.0,92,0.00,,,0.00,,2013-04-28 07:21:00,
2013-04-28 03:32:00,32.0,30.0,30.29,NE,36,0.0,0.0,92,0.00,,,0.00,,2013-04-28 07:32:00,
2013-04-28 03:42:00,32.0,30.0,30.29,NE,36,0.0,0.0,92,0.00,,,0.00,,2013-04-28 07:42:00,
2013-04-28 03:52:00,31.0,29.0,30.29,NE,36,0.0,0.0,93,0.00,,,0.00,,2013-04-28 07:52:00,
2013-04-28 04:02:00,31.0,29.0,30.29,NE,36,0.0,0.0,93,0.00,,,0.00,,2013-04-28 08:02:00,
2013-04-28 04:11:00,31.0,29.0,30.29,NE,36,0.0,0.0,93,0.00,,,0.00,,2013-04-28 08:11:00,
2013-04-28 04:21:00,32.0,30.0,30.28,NE,36,0.0,0.0,93,0.00,,,0.00,,2013-04-28 08:21:00,
2013-04-28 04:32:00,31.0,29.0,30.29,NE,36,0.0,0.0,94,0.00,,,0.00,,2013-04-28 08:32:00,
2013-04-28 04:42:00,31.0,29.0,30.29,NE,36,0.0,0.0,94,0.00,,,0.00,,2013-04-28 08:42:00,
2013-04-28 04:52:00,31.0,29.0,30.29,NE,36,0.0,0.0,93,0.00,,,0.00,,2013-04-28 08:52:00,
2013-04-28 05:01:00,31.0,29.0,30.29,NE,36,0.0,0.0,93,0.00,,,0.00,,2013-04-28 09:01:00,
2013-04-28 05:12:00,31.0,29.0,30.29,NE,36,0.0,0.0,93,0.00,,,0.00,,2013-04-28 09:12:00,
2013-04-28 05:21:00,30.0,28.0,30.29,NE,36,0.0,0.0,94,0.00,,,0.00,,2013-04-28 09:21:00,
2013-04-28 05:33:00,30.0,28.0,30.29,NE,36,0.0,0.0,94,0.00,,,0.00,,2013-04-28 09:33:00,
2013-04-28 05:42:00,30.0,28.0,30.29,NE,36,0.0,0.0,94,0.00,,,0.00,,2013-04-28 09:42:00,
2013-04-28 05:53:00,30.0,28.0,30.29,NE,36,0.0,0.0,94,0.00,,,0.00,,2013-04-28 09:53:00,
2013-04-28 06:03:00,30.0,28.0,30.28,NE,36,327.0,327.0,94,-99.99,,,-99.99,,2013-04-28 10:03:00,
2013-04-28 06:12:00,30.0,28.0,30.28,NE,36,327.0,327.0,94,-99.99,,,-99.99,,2013-04-28 10:12:00,
2013-04-28 06:23:00,30.0,28.0,30.28,NE,36,327.0,327.0,94,-99.99,,,-99.99,,2013-04-28 10:23:00,
2013-04-28 06:32:00,30.0,28.0,30.29,NE,36,327.0,327.0,94,-99.99,,,-99.99,,2013-04-28 10:32:00,
2013-04-28 06:42:00,30.0,28.0,30.29,NE,36,327.0,327.0,94,-99.99,,,-99.99,,2013-04-28 10:42:00,
2013-04-28 06:53:00,31.0,29.0,30.29,NE,36,0.0,0.0,94,0.00,,,0.00,,2013-04-28 10:53:00,
2013-04-28 07:02:00,31.0,29.0,30.29,NE,36,0.0,0.0,94,0.00,,,0.00,,2013-04-28 11:02:00,
2013-04-28 07:11:00,31.0,29.0,30.29,NE,36,0.0,0.0,94,0.00,,,0.00,,2013-04-28 11:11:00,
2013-04-28 07:22:00,32.0,31.0,30.29,NE,36,327.0,327.0,95,-99.99,,,-99.99,,2013-04-28 11:22:00,
2013-04-28 07:32:00,33.0,32.0,30.29,NE,36,327.0,327.0,95,-99.99,,,-99.99,,2013-04-28 11:32:00,
2013-04-28 07:42:00,33.0,32.0,30.29,NE,36,327.0,327.0,95,-99.99,,,-99.99,,2013-04-28 11:42:00,
2013-04-28 07:52:00,33.0,32.0,30.29,NE,36,327.0,327.0,95,-99.99,,,-99.99,,2013-04-28 11:52:00,
2013-04-28 08:02:00,38.0,36.0,30.30,NE,38,0.0,0.0,94,0.00,,,0.00,,2013-04-28 12:02:00,
2013-04-28 08:12:00,38.0,36.0,30.30,NE,38,0.0,0.0,94,0.00,,,0.00,,2013-04-28 12:12:00,
2013-04-28 08:22:00,40.0,38.0,30.30,NE,38,0.0,0.0,92,0.00,,,0.00,,2013-04-28 12:22:00,
2013-04-28 08:32:00,42.0,38.0,30.30,NE,38,327.0,327.0,85,-99.99,,,-99.99,,2013-04-28 12:32:00,
2013-04-28 08:42:00,42.0,38.0,30.30,NE,38,327.0,327.0,85,-99.99,,,-99.99,,2013-04-28 12:42:00,
2013-04-28 08:52:00,42.0,38.0,30.30,NE,38,327.0,327.0,85,-99.99,,,-99.99,,2013-04-28 12:52:00,
2013-04-28 09:02:00,48.0,38.0,30.30,West,267,0.0,2.0,69,0.00,,,0.00,,2013-04-28 13:02:00,
2013-04-28 09:11:00,48.0,38.0,30.30,West,267,0.0,2.0,69,0.00,,,0.00,,2013-04-28 13:11:00,
2013-04-28 09:21:00,48.0,38.0,30.30,West,263,1.0,2.0,67,0.00,,,0.00,,2013-04-28 13:21:00,
2013-04-28 09:32:00,52.0,39.0,30.30,WNW,295,0.0,2.0,61,0.00,,,0.00,,2013-04-28 13:32:00,
2013-04-28 09:42:00,52.0,39.0,30.30,WNW,295,0.0,2.0,61,0.00,,,0.00,,2013-04-28 13:42:00,
2013-04-28 09:52:00,52.0,39.0,30.30,WNW,295,0.0,2.0,61,0.00,,,0.00,,2013-04-28 13:52:00,
2013-04-28 10:02:00,55.0,41.0,30.30,ENE,65,327.0,327.0,59,-99.99,,,-99.99,,2013-04-28 14:02:00,
2013-04-28 10:11:00,55.0,41.0,30.30,ENE,65,327.0,327.0,59,-99.99,,,-99.99,,2013-04-28 14:11:00,
2013-04-28 10:22:00,58.0,40.0,30.30,SE,128,2.0,4.0,51,0.00,,,0.00,,2013-04-28 14:22:00,
2013-04-28 10:32:00,62.0,40.0,30.30,SSW,208,2.0,5.0,44,0.00,,,0.00,,2013-04-28 14:32:00,
2013-04-28 10:42:00,62.0,40.0,30.30,SSW,208,2.0,5.0,44,0.00,,,0.00,,2013-04-28 14:42:00,
2013-04-28 10:52:00,62.0,40.0,30.29,SW,220,2.0,6.0,44,0.00,,,0.00,,2013-04-28 14:52:00,
2013-04-28 11:02:00,63.0,39.0,30.29,SW,216,2.0,8.0,41,0.00,,,0.00,,2013-04-28 15:02:00,
2013-04-28 11:12:00,63.0,39.0,30.29,SW,216,2.0,8.0,41,0.00,,,0.00,,2013-04-28 15:12:00,
2013-04-28 11:21:00,63.0,39.0,30.29,SW,216,2.0,8.0,41,0.00,,,0.00,,2013-04-28 15:21:00,
2013-04-28 11:32:00,64.0,39.0,30.28,WSW,256,3.0,7.0,39,0.00,,,0.00,,2013-04-28 15:32:00,
2013-04-28 11:42:00,64.0,39.0,30.28,WSW,256,3.0,7.0,39,0.00,,,0.00,,2013-04-28 15:42:00,
2013-04-28 11:53:00,64.0,38.0,30.27,SW,224,3.0,6.0,38,0.00,,,0.00,,2013-04-28 15:53:00,
2013-04-28 12:03:00,61.0,36.0,30.27,SW,230,3.0,10.0,40,0.00,,,0.00,,2013-04-28 16:03:00,
2013-04-28 12:13:00,61.0,36.0,30.27,SW,230,3.0,10.0,40,0.00,,,0.00,,2013-04-28 16:13:00,
2013-04-28 12:23:00,64.0,39.0,30.27,SE,144,2.0,4.0,39,0.00,,,0.00,,2013-04-28 16:23:00,
2013-04-28 12:33:00,62.0,38.0,30.26,SE,130,1.0,5.0,41,0.00,,,0.00,,2013-04-28 16:33:00,
2013-04-28 12:42:00,62.0,38.0,30.26,SE,130,1.0,5.0,41,0.00,,,0.00,,2013-04-28 16:42:00,
2013-04-28 12:52:00,63.0,36.0,30.26,NE,46,1.0,5.0,36,0.00,,,0.00,,2013-04-28 16:52:00,
2013-04-28 13:02:00,64.0,38.0,30.25,WSW,241,327.0,327.0,38,-99.99,,,-99.99,,2013-04-28 17:02:00,
2013-04-28 13:12:00,64.0,38.0,30.25,WSW,241,327.0,327.0,38,-99.99,,,-99.99,,2013-04-28 17:12:00,
2013-04-28 13:22:00,66.0,38.0,30.24,NW,306,2.0,8.0,36,0.00,,,0.00,,2013-04-28 17:22:00,
2013-04-28 13:32:00,64.0,37.0,30.24,WSW,256,0.0,4.0,36,0.00,,,0.00,,2013-04-28 17:32:00,
2013-04-28 13:43:00,64.0,37.0,30.24,WSW,256,0.0,4.0,36,0.00,,,0.00,,2013-04-28 17:43:00,
2013-04-28 13:52:00,64.0,37.0,30.24,WSW,256,0.0,4.0,36,0.00,,,0.00,,2013-04-28 17:52:00,
2013-04-28 14:02:00,64.0,37.0,30.24,WSW,256,0.0,4.0,36,0.00,,,0.00,,2013-04-28 18:02:00,
2013-04-28 14:12:00,64.0,37.0,30.24,WSW,256,0.0,4.0,36,0.00,,,0.00,,2013-04-28 18:12:00,
2013-04-28 14:22:00,67.0,37.0,30.23,WSW,237,2.0,6.0,33,0.00,,,0.00,,2013-04-28 18:22:00,
2013-04-28 14:32:00,66.0,39.0,30.22,East,79,327.0,327.0,37,-99.99,,,-99.99,,2013-04-28 18:32:00,
2013-04-28 14:42:00,66.0,39.0,30.22,East,79,327.0,327.0,37,-99.99,,,-99.99,,2013-04-28 18:42:00,
2013-04-28 14:52:00,67.0,35.0,30.21,East,96,327.0,327.0,31,-99.99,,,-99.99,,2013-04-28 18:52:00,
2013-04-28 15:02:00,68.0,34.0,30.21,SE,146,327.0,327.0,28,-99.99,,,-99.99,,2013-04-28 19:02:00,
2013-04-28 15:11:00,68.0,34.0,30.21,SE,146,327.0,327.0,28,-99.99,,,-99.99,,2013-04-28 19:11:00,
2013-04-28 15:22:00,68.0,35.0,30.20,SSW,202,1.0,5.0,30,0.00,,,0.00,,2013-04-28 19:22:00,
2013-04-28 15:32:00,68.0,36.0,30.19,North,355,0.0,5.0,31,0.00,,,0.00,,2013-04-28 19:32:00,
2013-04-28 15:42:00,68.0,36.0,30.19,North,355,0.0,5.0,31,0.00,,,0.00,,2013-04-28 19:42:00,
2013-04-28 15:52:00,69.0,36.0,30.19,SSW,203,1.0,7.0,30,0.00,,,0.00,,2013-04-28 19:52:00,
2013-04-28 16:02:00,69.0,35.0,30.18,SW,219,1.0,4.0,29,0.00,,,0.00,,2013-04-28 20:02:00,
2013-04-28 16:12:00,69.0,35.0,30.18,SW,219,1.0,4.0,29,0.00,,,0.00,,2013-04-28 20:12:00,
2013-04-28 16:22:00,69.0,36.0,30.18,SW,227,2.0,5.0,30,0.00,,,0.00,,2013-04-28 20:22:00,
2013-04-28 16:32:00,68.0,41.0,30.18,East,92,0.0,3.0,37,0.00,,,0.00,,2013-04-28 20:32:00,
2013-04-28 16:42:00,68.0,41.0,30.18,East,92,0.0,3.0,37,0.00,,,0.00,,2013-04-28 20:42:00,
2013-04-28 16:52:00,67.0,40.0,30.17,NE,38,3.0,8.0,37,0.00,,,0.00,,2013-04-28 20:52:00,
2013-04-28 17:01:00,67.0,40.0,30.17,NE,38,3.0,8.0,37,0.00,,,0.00,,2013-04-28 21:01:00,
2013-04-28 17:11:00,67.0,40.0,30.17,NE,38,3.0,8.0,37,0.00,,,0.00,,2013-04-28 21:11:00,
2013-04-28 17:22:00,65.0,40.0,30.18,WNW,290,0.0,5.0,40,0.00,,,0.00,,2013-04-28 21:22:00,
2013-04-28 17:33:00,63.0,39.0,30.18,South,174,0.0,6.0,41,0.00,,,0.00,,2013-04-28 21:33:00,
2013-04-28 17:42:00,63.0,39.0,30.18,South,174,0.0,6.0,41,0.00,,,0.00,,2013-04-28 21:42:00,
2013-04-28 17:52:00,63.0,38.0,30.18,NNW,332,327.0,327.0,39,-99.99,,,-99.99,,2013-04-28 21:52:00,
2013-04-28 18:03:00,64.0,38.0,30.19,South,183,1.0,5.0,38,0.00,,,0.00,,2013-04-28 22:03:00,
2013-04-28 18:13:00,64.0,38.0,30.19,South,183,1.0,5.0,38,0.00,,,0.00,,2013-04-28 22:13:00,
2013-04-28 18:23:00,63.0,38.0,30.19,SSW,202,1.0,6.0,40,0.00,,,0.00,,2013-04-28 22:23:00,
2013-04-28 18:33:00,62.0,37.0,30.19,NNW,346,2.0,9.0,40,0.00,,,0.00,,2013-04-28 22:33:00,
2013-04-28 18:42:00,62.0,37.0,30.19,NNW,346,2.0,9.0,40,0.00,,,0.00,,2013-04-28 22:42:00,
2013-04-28 18:52:00,61.0,36.0,30.19,South,172,1.0,6.0,40,0.00,,,0.00,,2013-04-28 22:52:00,
2013-04-28 19:02:00,60.0,36.0,30.19,NNE,26,2.0,6.0,40,0.00,,,0.00,,2013-04-28 23:02:00,
2013-04-28 19:12:00,60.0,36.0,30.19,NNE,26,2.0,6.0,40,0.00,,,0.00,,2013-04-28 23:12:00,
2013-04-28 19:22:00,59.0,35.0,30.19,WSW,253,3.0,5.0,41,0.00,,,0.00,,2013-04-28 23:22:00,
2013-04-28 19:32:00,57.0,35.0,30.20,West,261,2.0,7.0,43,0.00,,,0.00,,2013-04-28 23:32:00,
2013-04-28 19:42:00,57.0,35.0,30.20,West,261,2.0,7.0,43,0.00,,,0.00,,2013-04-28 23:42:00,
2013-04-28 19:52:00,55.0,36.0,30.21,WSW,252,0.0,4.0,48,0.00,,,0.00,,2013-04-28 23:52:00,
2013-04-28 20:01:00,54.0,37.0,30.21,WSW,252,1.0,2.0,52,0.00,,,0.00,,2013-04-29 00:01:00,
2013-04-28 20:11:00,54.0,37.0,30.21,WSW,252,1.0,2.0,52,0.00,,,0.00,,2013-04-29 00:11:00,
2013-04-28 20:22:00,54.0,34.0,30.21,East,92,0.0,8.0,47,0.00,,,0.00,,2013-04-29 00:22:00,
2013-04-28 20:32:00,53.0,34.0,30.21,SW,233,0.0,4.0,48,0.00,,,0.00,,2013-04-29 00:32:00,
2013-04-28 20:42:00,53.0,34.0,30.21,SW,233,0.0,4.0,48,0.00,,,0.00,,2013-04-29 00:42:00,
2013-04-28 20:52:00,51.0,34.0,30.21,NNE,24,327.0,327.0,53,-99.99,,,-99.99,,2013-04-29 00:52:00,
2013-04-28 21:01:00,49.0,34.0,30.21,NNE,24,0.0,1.0,56,0.00,,,0.00,,2013-04-29 01:01:00,
2013-04-28 21:12:00,47.0,33.0,30.22,NNE,24,0.0,1.0,59,0.00,,,0.00,,2013-04-29 01:12:00,
2013-04-28 21:21:00,47.0,33.0,30.22,NNE,24,0.0,1.0,59,0.00,,,0.00,,2013-04-29 01:21:00,
2013-04-28 21:32:00,46.0,34.0,30.23,NNE,24,0.0,0.0,63,0.00,,,0.00,,2013-04-29 01:32:00,
2013-04-28 21:42:00,46.0,34.0,30.23,NNE,24,0.0,0.0,63,0.00,,,0.00,,2013-04-29 01:42:00,
2013-04-28 21:52:00,45.0,34.0,30.23,NNE,24,0.0,0.0,66,0.00,,,0.00,,2013-04-29 01:52:00,
2013-04-28 22:02:00,44.0,34.0,30.23,NNE,24,0.0,0.0,69,0.00,,,0.00,,2013-04-29 02:02:00,
2013-04-28 22:11:00,44.0,34.0,30.23,NNE,24,0.0,0.0,69,0.00,,,0.00,,2013-04-29 02:11:00,
2013-04-28 22:22:00,43.0,35.0,30.23,NNE,24,0.0,0.0,72,0.00,,,0.00,,2013-04-29 02:22:00,
2013-04-28 22:32:00,42.0,35.0,30.23,NNE,24,0.0,0.0,76,0.00,,,0.00,,2013-04-29 02:32:00,
2013-04-28 22:42:00,42.0,35.0,30.23,NNE,24,0.0,0.0,76,0.00,,,0.00,,2013-04-29 02:42:00,
2013-04-28 22:52:00,41.0,35.0,30.23,NNE,24,0.0,0.0,78,0.00,,,0.00,,2013-04-29 02:52:00,
2013-04-28 23:01:00,40.0,34.0,30.23,NNE,24,0.0,1.0,80,0.00,,,0.00,,2013-04-29 03:01:00,
2013-04-28 23:12:00,40.0,34.0,30.23,NNE,24,0.0,1.0,80,0.00,,,0.00,,2013-04-29 03:12:00,
2013-04-28 23:21:00,40.0,35.0,30.23,NNE,24,0.0,0.0,81,0.00,,,0.00,,2013-04-29 03:21:00,
2013-04-28 23:33:00,40.0,35.0,30.23,NNE,24,0.0,0.0,82,0.00,,,0.00,,2013-04-29 03:33:00,
2013-04-28 23:42:00,40.0,35.0,30.23,NNE,24,0.0,0.0,82,0.00,,,0.00,,2013-04-29 03:42:00,
2013-04-28 23:52:00,39.0,34.0,30.23,NNE,24,0.0,0.0,83,0.00,,,0.00,,2013-04-29 03:52:00,